sensor_id;sensor_type;location;lat;lon;timestamp;P1;durP1;ratioP1;P2;durP2;ratioP2
47860;SDS011;33620;52.340;5.984;2022-11-21T00:00:14;50.22;;;24.73;;
47860;SDS011;33620;52.340;5.984;2022-11-21T00:02:40;47.47;;;23.67;;
47860;SDS011;33620;52.340;5.984;2022-11-21T00:05:05;46.33;;;23.55;;
47860;SDS011;33620;52.340;5.984;2022-11-21T00:07:31;44.00;;;23.30;;
47860;SDS011;33620;52.340;5.984;2022-11-21T00:09:56;48.33;;;24.45;;
47860;SDS011;33620;52.340;5.984;2022-11-21T00:12:22;46.83;;;23.73;;
47860;SDS011;33620;52.340;5.984;2022-11-21T00:14:47;50.15;;;25.48;;
47860;SDS011;33620;52.340;5.984;2022-11-21T00:17:12;45.10;;;23.25;;
47860;SDS011;33620;52.340;5.984;2022-11-21T00:19:37;51.83;;;25.48;;
47860;SDS011;33620;52.340;5.984;2022-11-21T00:22:03;57.78;;;26.98;;
47860;SDS011;33620;52.340;5.984;2022-11-21T00:24:29;50.00;;;24.80;;
47860;SDS011;33620;52.340;5.984;2022-11-21T00:26:54;48.47;;;23.10;;
47860;SDS011;33620;52.340;5.984;2022-11-21T00:29:20;50.35;;;24.77;;
47860;SDS011;33620;52.340;5.984;2022-11-21T00:31:45;53.20;;;24.70;;
47860;SDS011;33620;52.340;5.984;2022-11-21T00:34:10;61.50;;;26.55;;
47860;SDS011;33620;52.340;5.984;2022-11-21T00:36:36;55.10;;;25.48;;
47860;SDS011;33620;52.340;5.984;2022-11-21T00:39:01;54.38;;;24.90;;
47860;SDS011;33620;52.340;5.984;2022-11-21T00:41:26;48.22;;;23.92;;
47860;SDS011;33620;52.340;5.984;2022-11-21T00:43:52;57.97;;;25.58;;
47860;SDS011;33620;52.340;5.984;2022-11-21T00:46:17;47.80;;;23.00;;
47860;SDS011;33620;52.340;5.984;2022-11-21T00:48:42;51.95;;;24.55;;
47860;SDS011;33620;52.340;5.984;2022-11-21T00:51:08;48.40;;;23.77;;
47860;SDS011;33620;52.340;5.984;2022-11-21T00:53:33;50.20;;;23.80;;
47860;SDS011;33620;52.340;5.984;2022-11-21T00:55:59;55.45;;;26.90;;
47860;SDS011;33620;52.340;5.984;2022-11-21T00:58:24;53.83;;;26.02;;
47860;SDS011;33620;52.340;5.984;2022-11-21T01:00:50;56.17;;;26.00;;
47860;SDS011;33620;52.340;5.984;2022-11-21T01:03:15;53.03;;;25.17;;
47860;SDS011;33620;52.340;5.984;2022-11-21T01:05:41;60.53;;;27.58;;
47860;SDS011;33620;52.340;5.984;2022-11-21T01:08:06;50.08;;;25.10;;
47860;SDS011;33620;52.340;5.984;2022-11-21T01:10:32;58.53;;;27.42;;
47860;SDS011;33620;52.340;5.984;2022-11-21T01:12:59;55.50;;;26.77;;
47860;SDS011;33620;52.340;5.984;2022-11-21T01:15:24;56.03;;;24.80;;
47860;SDS011;33620;52.340;5.984;2022-11-21T01:17:50;62.10;;;28.38;;
47860;SDS011;33620;52.340;5.984;2022-11-21T01:20:15;61.20;;;27.52;;
47860;SDS011;33620;52.340;5.984;2022-11-21T01:22:40;61.58;;;28.98;;
47860;SDS011;33620;52.340;5.984;2022-11-21T01:25:06;57.58;;;27.23;;
47860;SDS011;33620;52.340;5.984;2022-11-21T01:27:32;57.40;;;26.73;;
47860;SDS011;33620;52.340;5.984;2022-11-21T01:29:57;62.10;;;27.63;;
47860;SDS011;33620;52.340;5.984;2022-11-21T01:32:23;51.78;;;24.27;;
47860;SDS011;33620;52.340;5.984;2022-11-21T01:34:48;57.63;;;25.83;;
47860;SDS011;33620;52.340;5.984;2022-11-21T01:37:13;60.75;;;28.95;;
47860;SDS011;33620;52.340;5.984;2022-11-21T01:39:39;50.83;;;24.95;;
47860;SDS011;33620;52.340;5.984;2022-11-21T01:42:04;51.45;;;24.58;;
47860;SDS011;33620;52.340;5.984;2022-11-21T01:44:49;53.90;;;25.20;;
47860;SDS011;33620;52.340;5.984;2022-11-21T01:47:17;54.33;;;25.95;;
47860;SDS011;33620;52.340;5.984;2022-11-21T01:49:43;49.03;;;24.48;;
47860;SDS011;33620;52.340;5.984;2022-11-21T01:54:55;52.03;;;25.60;;
47860;SDS011;33620;52.340;5.984;2022-11-21T02:02:46;66.57;;;26.63;;
47860;SDS011;33620;52.340;5.984;2022-11-21T02:05:18;63.90;;;27.88;;
47860;SDS011;33620;52.340;5.984;2022-11-21T02:07:46;50.17;;;24.27;;
47860;SDS011;33620;52.340;5.984;2022-11-21T02:10:13;53.92;;;26.58;;
47860;SDS011;33620;52.340;5.984;2022-11-21T02:15:10;51.17;;;24.88;;
47860;SDS011;33620;52.340;5.984;2022-11-21T02:17:36;51.20;;;25.50;;
47860;SDS011;33620;52.340;5.984;2022-11-21T02:20:03;52.72;;;24.45;;
47860;SDS011;33620;52.340;5.984;2022-11-21T02:25:09;52.63;;;24.75;;
47860;SDS011;33620;52.340;5.984;2022-11-21T02:27:38;48.78;;;24.00;;
47860;SDS011;33620;52.340;5.984;2022-11-21T02:30:04;52.10;;;24.83;;
47860;SDS011;33620;52.340;5.984;2022-11-21T02:32:33;54.92;;;26.20;;
47860;SDS011;33620;52.340;5.984;2022-11-21T02:35:00;43.88;;;23.65;;
47860;SDS011;33620;52.340;5.984;2022-11-21T02:37:26;56.28;;;26.48;;
47860;SDS011;33620;52.340;5.984;2022-11-21T02:39:52;65.43;;;28.40;;
47860;SDS011;33620;52.340;5.984;2022-11-21T02:44:53;52.60;;;25.75;;
47860;SDS011;33620;52.340;5.984;2022-11-21T02:47:24;55.35;;;25.88;;
47860;SDS011;33620;52.340;5.984;2022-11-21T02:52:37;56.47;;;27.63;;
47860;SDS011;33620;52.340;5.984;2022-11-21T02:55:03;62.70;;;27.88;;
47860;SDS011;33620;52.340;5.984;2022-11-21T02:57:28;72.47;;;28.95;;
47860;SDS011;33620;52.340;5.984;2022-11-21T02:59:54;71.53;;;31.10;;
47860;SDS011;33620;52.340;5.984;2022-11-21T03:02:19;55.03;;;27.35;;
47860;SDS011;33620;52.340;5.984;2022-11-21T03:04:44;55.20;;;27.13;;
47860;SDS011;33620;52.340;5.984;2022-11-21T03:07:10;70.93;;;28.77;;
47860;SDS011;33620;52.340;5.984;2022-11-21T03:09:35;52.83;;;25.10;;
47860;SDS011;33620;52.340;5.984;2022-11-21T03:12:04;56.67;;;27.02;;
47860;SDS011;33620;52.340;5.984;2022-11-21T03:14:31;53.28;;;25.98;;
47860;SDS011;33620;52.340;5.984;2022-11-21T03:16:56;48.78;;;24.65;;
47860;SDS011;33620;52.340;5.984;2022-11-21T03:19:21;59.65;;;26.88;;
47860;SDS011;33620;52.340;5.984;2022-11-21T03:21:47;51.78;;;25.45;;
47860;SDS011;33620;52.340;5.984;2022-11-21T03:24:12;50.72;;;24.75;;
47860;SDS011;33620;52.340;5.984;2022-11-21T03:26:37;52.50;;;25.05;;
47860;SDS011;33620;52.340;5.984;2022-11-21T03:29:03;48.40;;;23.92;;
47860;SDS011;33620;52.340;5.984;2022-11-21T03:31:28;53.50;;;26.27;;
47860;SDS011;33620;52.340;5.984;2022-11-21T03:33:53;52.42;;;24.92;;
47860;SDS011;33620;52.340;5.984;2022-11-21T03:36:19;56.47;;;26.58;;
47860;SDS011;33620;52.340;5.984;2022-11-21T03:38:44;56.72;;;25.67;;
47860;SDS011;33620;52.340;5.984;2022-11-21T03:41:09;51.47;;;24.65;;
47860;SDS011;33620;52.340;5.984;2022-11-21T03:43:53;55.05;;;26.13;;
47860;SDS011;33620;52.340;5.984;2022-11-21T03:46:22;70.05;;;28.13;;
47860;SDS011;33620;52.340;5.984;2022-11-21T03:48:47;56.05;;;26.27;;
47860;SDS011;33620;52.340;5.984;2022-11-21T03:51:13;62.00;;;28.42;;
47860;SDS011;33620;52.340;5.984;2022-11-21T03:53:38;58.53;;;26.73;;
47860;SDS011;33620;52.340;5.984;2022-11-21T03:56:04;63.00;;;28.42;;
47860;SDS011;33620;52.340;5.984;2022-11-21T03:58:29;84.50;;;30.95;;
47860;SDS011;33620;52.340;5.984;2022-11-21T04:00:55;59.25;;;26.63;;
47860;SDS011;33620;52.340;5.984;2022-11-21T04:03:20;84.70;;;31.45;;
47860;SDS011;33620;52.340;5.984;2022-11-21T04:05:45;73.22;;;29.27;;
47860;SDS011;33620;52.340;5.984;2022-11-21T04:08:11;67.88;;;29.75;;
47860;SDS011;33620;52.340;5.984;2022-11-21T04:10:36;90.25;;;31.50;;
47860;SDS011;33620;52.340;5.984;2022-11-21T04:13:01;85.10;;;32.00;;
47860;SDS011;33620;52.340;5.984;2022-11-21T04:15:27;99.05;;;32.50;;
47860;SDS011;33620;52.340;5.984;2022-11-21T04:17:52;76.07;;;30.38;;
47860;SDS011;33620;52.340;5.984;2022-11-21T04:20:17;60.85;;;27.27;;
47860;SDS011;33620;52.340;5.984;2022-11-21T04:22:43;81.47;;;31.23;;
47860;SDS011;33620;52.340;5.984;2022-11-21T04:25:08;63.40;;;26.70;;
47860;SDS011;33620;52.340;5.984;2022-11-21T04:27:34;67.20;;;28.27;;
47860;SDS011;33620;52.340;5.984;2022-11-21T04:29:59;68.03;;;29.02;;
47860;SDS011;33620;52.340;5.984;2022-11-21T04:32:25;72.43;;;30.02;;
47860;SDS011;33620;52.340;5.984;2022-11-21T04:34:50;77.88;;;31.17;;
47860;SDS011;33620;52.340;5.984;2022-11-21T04:37:15;73.22;;;29.35;;
47860;SDS011;33620;52.340;5.984;2022-11-21T04:39:41;80.05;;;30.35;;
47860;SDS011;33620;52.340;5.984;2022-11-21T04:42:06;83.93;;;32.05;;
47860;SDS011;33620;52.340;5.984;2022-11-21T04:44:31;87.22;;;32.00;;
47860;SDS011;33620;52.340;5.984;2022-11-21T04:46:57;64.05;;;28.23;;
47860;SDS011;33620;52.340;5.984;2022-11-21T04:49:24;79.85;;;29.67;;
47860;SDS011;33620;52.340;5.984;2022-11-21T04:51:49;69.13;;;30.00;;
47860;SDS011;33620;52.340;5.984;2022-11-21T04:54:15;81.97;;;31.33;;
47860;SDS011;33620;52.340;5.984;2022-11-21T04:56:40;62.67;;;28.00;;
47860;SDS011;33620;52.340;5.984;2022-11-21T04:59:05;56.80;;;25.45;;
47860;SDS011;33620;52.340;5.984;2022-11-21T05:01:31;92.43;;;32.60;;
47860;SDS011;33620;52.340;5.984;2022-11-21T05:03:56;86.50;;;29.55;;
47860;SDS011;33620;52.340;5.984;2022-11-21T05:06:21;102.45;;;31.60;;
47860;SDS011;33620;52.340;5.984;2022-11-21T05:08:47;125.55;;;33.60;;
47860;SDS011;33620;52.340;5.984;2022-11-21T05:11:12;169.13;;;36.70;;
47860;SDS011;33620;52.340;5.984;2022-11-21T05:13:56;97.40;;;31.70;;
47860;SDS011;33620;52.340;5.984;2022-11-21T05:16:21;186.70;;;38.20;;
47860;SDS011;33620;52.340;5.984;2022-11-21T05:18:47;158.73;;;40.08;;
47860;SDS011;33620;52.340;5.984;2022-11-21T05:21:12;152.63;;;38.22;;
47860;SDS011;33620;52.340;5.984;2022-11-21T05:23:37;213.25;;;45.67;;
47860;SDS011;33620;52.340;5.984;2022-11-21T05:26:03;202.60;;;43.28;;
47860;SDS011;33620;52.340;5.984;2022-11-21T05:28:28;144.30;;;35.47;;
47860;SDS011;33620;52.340;5.984;2022-11-21T05:30:53;86.43;;;30.23;;
47860;SDS011;33620;52.340;5.984;2022-11-21T05:33:19;89.72;;;30.25;;
47860;SDS011;33620;52.340;5.984;2022-11-21T05:35:44;144.15;;;35.95;;
47860;SDS011;33620;52.340;5.984;2022-11-21T05:38:10;155.32;;;34.72;;
47860;SDS011;33620;52.340;5.984;2022-11-21T05:40:35;204.00;;;38.15;;
47860;SDS011;33620;52.340;5.984;2022-11-21T05:43:00;158.02;;;32.63;;
47860;SDS011;33620;52.340;5.984;2022-11-21T05:45:44;227.30;;;37.50;;
47860;SDS011;33620;52.340;5.984;2022-11-21T05:48:12;249.70;;;43.65;;
47860;SDS011;33620;52.340;5.984;2022-11-21T05:50:37;192.38;;;35.95;;
47860;SDS011;33620;52.340;5.984;2022-11-21T05:53:03;189.00;;;37.70;;
47860;SDS011;33620;52.340;5.984;2022-11-21T05:55:29;299.23;;;52.08;;
47860;SDS011;33620;52.340;5.984;2022-11-21T05:57:57;135.07;;;32.15;;
47860;SDS011;33620;52.340;5.984;2022-11-21T06:00:23;215.85;;;40.15;;
47860;SDS011;33620;52.340;5.984;2022-11-21T06:02:48;226.30;;;43.38;;
47860;SDS011;33620;52.340;5.984;2022-11-21T06:05:32;199.52;;;42.03;;
47860;SDS011;33620;52.340;5.984;2022-11-21T06:07:57;183.68;;;38.95;;
47860;SDS011;33620;52.340;5.984;2022-11-21T06:10:23;281.83;;;53.15;;
47860;SDS011;33620;52.340;5.984;2022-11-21T06:12:48;262.67;;;44.20;;
47860;SDS011;33620;52.340;5.984;2022-11-21T06:15:13;197.35;;;37.80;;
47860;SDS011;33620;52.340;5.984;2022-11-21T06:17:39;214.65;;;43.85;;
47860;SDS011;33620;52.340;5.984;2022-11-21T06:20:04;331.35;;;53.50;;
47860;SDS011;33620;52.340;5.984;2022-11-21T06:22:30;240.95;;;43.05;;
47860;SDS011;33620;52.340;5.984;2022-11-21T06:24:55;211.27;;;45.17;;
47860;SDS011;33620;52.340;5.984;2022-11-21T06:27:21;185.23;;;39.80;;
47860;SDS011;33620;52.340;5.984;2022-11-21T06:29:46;148.98;;;34.95;;
47860;SDS011;33620;52.340;5.984;2022-11-21T06:32:11;143.05;;;35.20;;
47860;SDS011;33620;52.340;5.984;2022-11-21T06:34:37;166.77;;;36.92;;
47860;SDS011;33620;52.340;5.984;2022-11-21T06:37:02;115.88;;;31.58;;
47860;SDS011;33620;52.340;5.984;2022-11-21T06:39:27;174.60;;;39.33;;
47860;SDS011;33620;52.340;5.984;2022-11-21T06:41:53;144.77;;;34.35;;
47860;SDS011;33620;52.340;5.984;2022-11-21T06:44:18;203.65;;;44.00;;
47860;SDS011;33620;52.340;5.984;2022-11-21T06:46:43;124.88;;;33.00;;
47860;SDS011;33620;52.340;5.984;2022-11-21T06:49:09;163.35;;;35.47;;
47860;SDS011;33620;52.340;5.984;2022-11-21T06:51:34;130.90;;;34.30;;
47860;SDS011;33620;52.340;5.984;2022-11-21T06:54:00;108.30;;;31.67;;
47860;SDS011;33620;52.340;5.984;2022-11-21T06:56:26;92.18;;;30.15;;
47860;SDS011;33620;52.340;5.984;2022-11-21T06:58:53;95.00;;;30.15;;
47860;SDS011;33620;52.340;5.984;2022-11-21T07:01:19;89.25;;;31.35;;
47860;SDS011;33620;52.340;5.984;2022-11-21T07:03:45;91.60;;;30.73;;
47860;SDS011;33620;52.340;5.984;2022-11-21T07:06:10;71.60;;;28.15;;
47860;SDS011;33620;52.340;5.984;2022-11-21T07:08:36;72.03;;;25.90;;
47860;SDS011;33620;52.340;5.984;2022-11-21T07:11:03;67.70;;;26.83;;
47860;SDS011;33620;52.340;5.984;2022-11-21T07:13:33;80.63;;;27.25;;
47860;SDS011;33620;52.340;5.984;2022-11-21T07:16:03;144.93;;;34.95;;
47860;SDS011;33620;52.340;5.984;2022-11-21T07:18:32;122.30;;;35.25;;
47860;SDS011;33620;52.340;5.984;2022-11-21T07:20:58;101.68;;;30.25;;
47860;SDS011;33620;52.340;5.984;2022-11-21T07:23:25;122.45;;;33.15;;
47860;SDS011;33620;52.340;5.984;2022-11-21T07:25:50;95.15;;;28.92;;
47860;SDS011;33620;52.340;5.984;2022-11-21T07:28:16;132.10;;;34.33;;
47860;SDS011;33620;52.340;5.984;2022-11-21T07:30:41;135.15;;;34.95;;
47860;SDS011;33620;52.340;5.984;2022-11-21T07:33:07;83.32;;;29.38;;
47860;SDS011;33620;52.340;5.984;2022-11-21T07:35:33;102.97;;;31.88;;
47860;SDS011;33620;52.340;5.984;2022-11-21T07:37:59;101.53;;;32.65;;
47860;SDS011;33620;52.340;5.984;2022-11-21T07:40:26;117.07;;;33.45;;
47860;SDS011;33620;52.340;5.984;2022-11-21T07:42:52;92.38;;;31.90;;
47860;SDS011;33620;52.340;5.984;2022-11-21T07:45:17;108.78;;;34.90;;
47860;SDS011;33620;52.340;5.984;2022-11-21T07:47:43;86.45;;;31.58;;
47860;SDS011;33620;52.340;5.984;2022-11-21T07:50:09;102.75;;;35.95;;
47860;SDS011;33620;52.340;5.984;2022-11-21T07:52:36;147.90;;;37.38;;
47860;SDS011;33620;52.340;5.984;2022-11-21T07:55:02;91.50;;;31.83;;
47860;SDS011;33620;52.340;5.984;2022-11-21T07:57:28;117.82;;;35.25;;
47860;SDS011;33620;52.340;5.984;2022-11-21T07:59:54;102.18;;;33.85;;
47860;SDS011;33620;52.340;5.984;2022-11-21T08:02:20;162.88;;;41.53;;
47860;SDS011;33620;52.340;5.984;2022-11-21T08:04:47;88.60;;;30.85;;
47860;SDS011;33620;52.340;5.984;2022-11-21T08:07:13;137.18;;;40.33;;
47860;SDS011;33620;52.340;5.984;2022-11-21T08:09:39;132.45;;;37.78;;
47860;SDS011;33620;52.340;5.984;2022-11-21T08:12:05;132.73;;;37.83;;
47860;SDS011;33620;52.340;5.984;2022-11-21T08:14:31;190.00;;;43.42;;
47860;SDS011;33620;52.340;5.984;2022-11-21T08:16:57;187.27;;;44.47;;
47860;SDS011;33620;52.340;5.984;2022-11-21T08:19:23;85.13;;;31.35;;
47860;SDS011;33620;52.340;5.984;2022-11-21T08:21:48;145.32;;;37.38;;
47860;SDS011;33620;52.340;5.984;2022-11-21T08:24:13;147.90;;;40.20;;
47860;SDS011;33620;52.340;5.984;2022-11-21T08:26:41;137.75;;;36.42;;
47860;SDS011;33620;52.340;5.984;2022-11-21T08:29:08;119.03;;;32.08;;
47860;SDS011;33620;52.340;5.984;2022-11-21T08:31:35;80.75;;;30.30;;
47860;SDS011;33620;52.340;5.984;2022-11-21T08:34:00;115.72;;;33.50;;
47860;SDS011;33620;52.340;5.984;2022-11-21T08:36:26;89.88;;;31.35;;
47860;SDS011;33620;52.340;5.984;2022-11-21T08:38:51;93.53;;;32.33;;
47860;SDS011;33620;52.340;5.984;2022-11-21T08:41:16;93.22;;;31.77;;
47860;SDS011;33620;52.340;5.984;2022-11-21T08:44:00;101.20;;;32.90;;
47860;SDS011;33620;52.340;5.984;2022-11-21T08:46:26;92.78;;;32.78;;
47860;SDS011;33620;52.340;5.984;2022-11-21T08:48:55;102.35;;;32.38;;
47860;SDS011;33620;52.340;5.984;2022-11-21T08:51:20;68.30;;;28.17;;
47860;SDS011;33620;52.340;5.984;2022-11-21T08:53:46;83.18;;;31.98;;
47860;SDS011;33620;52.340;5.984;2022-11-21T08:56:12;76.22;;;28.48;;
47860;SDS011;33620;52.340;5.984;2022-11-21T08:58:38;86.43;;;29.27;;
47860;SDS011;33620;52.340;5.984;2022-11-21T09:01:03;79.13;;;29.73;;
47860;SDS011;33620;52.340;5.984;2022-11-21T09:03:29;63.17;;;26.90;;
47860;SDS011;33620;52.340;5.984;2022-11-21T09:05:55;101.65;;;31.10;;
47860;SDS011;33620;52.340;5.984;2022-11-21T09:08:21;80.80;;;30.95;;
47860;SDS011;33620;52.340;5.984;2022-11-21T09:10:46;78.45;;;27.80;;
47860;SDS011;33620;52.340;5.984;2022-11-21T09:13:11;65.97;;;28.50;;
47860;SDS011;33620;52.340;5.984;2022-11-21T09:15:37;70.18;;;27.15;;
47860;SDS011;33620;52.340;5.984;2022-11-21T09:18:21;96.40;;;31.02;;
47860;SDS011;33620;52.340;5.984;2022-11-21T09:20:46;93.00;;;31.58;;
47860;SDS011;33620;52.340;5.984;2022-11-21T09:23:13;75.07;;;28.52;;
47860;SDS011;33620;52.340;5.984;2022-11-21T09:25:39;70.85;;;27.63;;
47860;SDS011;33620;52.340;5.984;2022-11-21T09:28:06;69.63;;;27.50;;
47860;SDS011;33620;52.340;5.984;2022-11-21T09:30:33;53.50;;;24.52;;
47860;SDS011;33620;52.340;5.984;2022-11-21T09:33:06;67.10;;;26.13;;
47860;SDS011;33620;52.340;5.984;2022-11-21T09:35:33;60.72;;;25.52;;
47860;SDS011;33620;52.340;5.984;2022-11-21T09:37:59;68.57;;;26.42;;
47860;SDS011;33620;52.340;5.984;2022-11-21T09:40:24;71.82;;;27.23;;
47860;SDS011;33620;52.340;5.984;2022-11-21T09:46:17;56.25;;;23.40;;
47860;SDS011;33620;52.340;5.984;2022-11-21T09:48:50;57.13;;;24.33;;
47860;SDS011;33620;52.340;5.984;2022-11-21T09:51:20;61.22;;;25.63;;
47860;SDS011;33620;52.340;5.984;2022-11-21T09:56:21;67.47;;;28.00;;
47860;SDS011;33620;52.340;5.984;2022-11-21T09:58:48;66.43;;;26.50;;
47860;SDS011;33620;52.340;5.984;2022-11-21T10:01:15;67.78;;;27.25;;
47860;SDS011;33620;52.340;5.984;2022-11-21T10:03:44;55.50;;;26.02;;
47860;SDS011;33620;52.340;5.984;2022-11-21T10:06:15;53.17;;;24.75;;
47860;SDS011;33620;52.340;5.984;2022-11-21T10:11:58;64.80;;;26.25;;
47860;SDS011;33620;52.340;5.984;2022-11-21T10:14:59;50.00;;;24.42;;
47860;SDS011;33620;52.340;5.984;2022-11-21T10:25:59;56.55;;;25.20;;
47860;SDS011;33620;52.340;5.984;2022-11-21T10:28:41;63.10;;;27.40;;
47860;SDS011;33620;52.340;5.984;2022-11-21T10:31:15;57.08;;;26.02;;
47860;SDS011;33620;52.340;5.984;2022-11-21T10:33:41;53.92;;;24.27;;
47860;SDS011;33620;52.340;5.984;2022-11-21T10:39:02;62.15;;;25.60;;
47860;SDS011;33620;52.340;5.984;2022-11-21T10:41:39;56.58;;;25.27;;
47860;SDS011;33620;52.340;5.984;2022-11-21T10:44:28;63.88;;;24.92;;
47860;SDS011;33620;52.340;5.984;2022-11-21T10:47:14;49.53;;;22.15;;
47860;SDS011;33620;52.340;5.984;2022-11-21T10:53:02;57.47;;;23.83;;
47860;SDS011;33620;52.340;5.984;2022-11-21T10:55:57;57.53;;;24.10;;
47860;SDS011;33620;52.340;5.984;2022-11-21T10:58:33;54.15;;;23.40;;
47860;SDS011;33620;52.340;5.984;2022-11-21T11:01:01;61.28;;;24.63;;
47860;SDS011;33620;52.340;5.984;2022-11-21T11:03:26;58.33;;;24.45;;
47860;SDS011;33620;52.340;5.984;2022-11-21T11:05:55;47.67;;;22.95;;
47860;SDS011;33620;52.340;5.984;2022-11-21T11:08:23;63.13;;;26.88;;
47860;SDS011;33620;52.340;5.984;2022-11-21T11:11:01;65.30;;;26.98;;
47860;SDS011;33620;52.340;5.984;2022-11-21T11:13:31;65.68;;;27.75;;
47860;SDS011;33620;52.340;5.984;2022-11-21T11:21:40;82.35;;;29.15;;
47860;SDS011;33620;52.340;5.984;2022-11-21T11:29:25;73.80;;;29.45;;
47860;SDS011;33620;52.340;5.984;2022-11-21T11:31:59;85.75;;;30.65;;
47860;SDS011;33620;52.340;5.984;2022-11-21T11:34:58;77.75;;;30.55;;
47860;SDS011;33620;52.340;5.984;2022-11-21T11:37:40;101.70;;;33.63;;
47860;SDS011;33620;52.340;5.984;2022-11-21T11:45:47;93.00;;;33.08;;
47860;SDS011;33620;52.340;5.984;2022-11-21T11:48:33;137.90;;;37.80;;
47860;SDS011;33620;52.340;5.984;2022-11-21T11:51:05;114.45;;;37.78;;
47860;SDS011;33620;52.340;5.984;2022-11-21T11:53:56;126.97;;;36.22;;
47860;SDS011;33620;52.340;5.984;2022-11-21T11:56:29;81.53;;;32.67;;
47860;SDS011;33620;52.340;5.984;2022-11-21T12:01:52;119.00;;;38.45;;
47860;SDS011;33620;52.340;5.984;2022-11-21T12:04:24;153.63;;;40.58;;
47860;SDS011;33620;52.340;5.984;2022-11-21T12:10:11;98.22;;;35.42;;
47860;SDS011;33620;52.340;5.984;2022-11-21T12:12:46;89.05;;;33.85;;
47860;SDS011;33620;52.340;5.984;2022-11-21T12:15:16;99.15;;;37.25;;
47860;SDS011;33620;52.340;5.984;2022-11-21T12:26:15;170.82;;;46.22;;
47860;SDS011;33620;52.340;5.984;2022-11-21T12:34:00;147.00;;;44.67;;
47860;SDS011;33620;52.340;5.984;2022-11-21T12:42:38;158.30;;;42.35;;
47860;SDS011;33620;52.340;5.984;2022-11-21T12:45:26;191.93;;;46.90;;
47860;SDS011;33620;52.340;5.984;2022-11-21T12:47:59;220.80;;;49.28;;
47860;SDS011;33620;52.340;5.984;2022-11-21T12:59:38;145.90;;;42.70;;
47860;SDS011;33620;52.340;5.984;2022-11-21T13:05:18;169.55;;;45.03;;
47860;SDS011;33620;52.340;5.984;2022-11-21T13:07:49;163.30;;;42.38;;
47860;SDS011;33620;52.340;5.984;2022-11-21T13:10:29;132.60;;;39.95;;
47860;SDS011;33620;52.340;5.984;2022-11-21T13:12:58;133.57;;;40.03;;
47860;SDS011;33620;52.340;5.984;2022-11-21T13:15:37;168.27;;;46.42;;
47860;SDS011;33620;52.340;5.984;2022-11-21T13:18:15;127.95;;;43.13;;
47860;SDS011;33620;52.340;5.984;2022-11-21T13:20:47;129.82;;;41.67;;
47860;SDS011;33620;52.340;5.984;2022-11-21T13:23:34;183.40;;;47.45;;
47860;SDS011;33620;52.340;5.984;2022-11-21T13:26:25;134.77;;;41.83;;
47860;SDS011;33620;52.340;5.984;2022-11-21T13:28:47;159.93;;;46.00;;
47860;SDS011;33620;52.340;5.984;2022-11-21T13:31:34;151.98;;;43.72;;
47860;SDS011;33620;52.340;5.984;2022-11-21T13:34:00;175.40;;;50.22;;
47860;SDS011;33620;52.340;5.984;2022-11-21T13:49:23;152.90;;;42.67;;
47860;SDS011;33620;52.340;5.984;2022-11-21T13:52:05;149.30;;;43.88;;
47860;SDS011;33620;52.340;5.984;2022-11-21T13:58:19;101.75;;;37.45;;
47860;SDS011;33620;52.340;5.984;2022-11-21T14:01:06;98.78;;;38.63;;
47860;SDS011;33620;52.340;5.984;2022-11-21T14:11:46;98.40;;;37.85;;
47860;SDS011;33620;52.340;5.984;2022-11-21T14:17:01;118.75;;;40.90;;
47860;SDS011;33620;52.340;5.984;2022-11-21T14:19:47;98.22;;;35.67;;
47860;SDS011;33620;52.340;5.984;2022-11-21T14:22:23;107.30;;;38.15;;
47860;SDS011;33620;52.340;5.984;2022-11-21T14:24:51;95.43;;;36.28;;
47860;SDS011;33620;52.340;5.984;2022-11-21T14:27:25;101.20;;;35.67;;
47860;SDS011;33620;52.340;5.984;2022-11-21T14:29:53;85.40;;;33.30;;
47860;SDS011;33620;52.340;5.984;2022-11-21T14:32:24;125.32;;;39.67;;
47860;SDS011;33620;52.340;5.984;2022-11-21T14:37:32;137.13;;;41.08;;
47860;SDS011;33620;52.340;5.984;2022-11-21T14:39:57;116.88;;;38.55;;
47860;SDS011;33620;52.340;5.984;2022-11-21T14:42:32;105.68;;;41.05;;
47860;SDS011;33620;52.340;5.984;2022-11-21T14:45:32;108.80;;;39.72;;
47860;SDS011;33620;52.340;5.984;2022-11-21T14:47:52;104.43;;;40.42;;
47860;SDS011;33620;52.340;5.984;2022-11-21T14:50:28;146.38;;;46.90;;
47860;SDS011;33620;52.340;5.984;2022-11-21T14:52:58;180.05;;;48.53;;
47860;SDS011;33620;52.340;5.984;2022-11-21T14:55:25;137.27;;;43.83;;
47860;SDS011;33620;52.340;5.984;2022-11-21T14:57:53;119.90;;;42.70;;
47860;SDS011;33620;52.340;5.984;2022-11-21T15:00:20;133.48;;;45.13;;
47860;SDS011;33620;52.340;5.984;2022-11-21T15:02:49;140.77;;;43.95;;
47860;SDS011;33620;52.340;5.984;2022-11-21T15:05:18;148.93;;;44.08;;
47860;SDS011;33620;52.340;5.984;2022-11-21T15:07:45;120.53;;;41.67;;
47860;SDS011;33620;52.340;5.984;2022-11-21T15:10:14;122.68;;;43.85;;
47860;SDS011;33620;52.340;5.984;2022-11-21T15:12:45;134.38;;;44.38;;
47860;SDS011;33620;52.340;5.984;2022-11-21T15:15:35;169.90;;;47.15;;
47860;SDS011;33620;52.340;5.984;2022-11-21T15:18:06;100.47;;;39.72;;
47860;SDS011;33620;52.340;5.984;2022-11-21T15:20:38;119.03;;;44.22;;
47860;SDS011;33620;52.340;5.984;2022-11-21T15:23:03;136.70;;;43.22;;
47860;SDS011;33620;52.340;5.984;2022-11-21T15:25:30;148.88;;;43.53;;
47860;SDS011;33620;52.340;5.984;2022-11-21T15:28:14;141.02;;;44.85;;
47860;SDS011;33620;52.340;5.984;2022-11-21T15:30:41;104.38;;;39.67;;
47860;SDS011;33620;52.340;5.984;2022-11-21T15:33:11;107.25;;;40.28;;
47860;SDS011;33620;52.340;5.984;2022-11-21T15:35:42;123.00;;;41.25;;
47860;SDS011;33620;52.340;5.984;2022-11-21T15:40:53;98.90;;;39.47;;
47860;SDS011;33620;52.340;5.984;2022-11-21T15:43:40;87.07;;;36.47;;
47860;SDS011;33620;52.340;5.984;2022-11-21T15:46:15;107.80;;;37.05;;
47860;SDS011;33620;52.340;5.984;2022-11-21T15:48:46;105.60;;;38.03;;
47860;SDS011;33620;52.340;5.984;2022-11-21T15:51:20;125.30;;;40.60;;
47860;SDS011;33620;52.340;5.984;2022-11-21T15:53:47;112.22;;;39.97;;
47860;SDS011;33620;52.340;5.984;2022-11-21T15:56:14;119.50;;;40.72;;
47860;SDS011;33620;52.340;5.984;2022-11-21T15:58:41;106.00;;;38.83;;
47860;SDS011;33620;52.340;5.984;2022-11-21T16:01:20;113.85;;;39.15;;
47860;SDS011;33620;52.340;5.984;2022-11-21T16:03:50;121.80;;;40.95;;
47860;SDS011;33620;52.340;5.984;2022-11-21T16:06:22;89.70;;;34.08;;
47860;SDS011;33620;52.340;5.984;2022-11-21T16:08:47;100.57;;;37.45;;
47860;SDS011;33620;52.340;5.984;2022-11-21T16:11:17;97.15;;;36.70;;
47860;SDS011;33620;52.340;5.984;2022-11-21T16:13:55;87.55;;;36.00;;
47860;SDS011;33620;52.340;5.984;2022-11-21T16:16:23;103.75;;;37.75;;
47860;SDS011;33620;52.340;5.984;2022-11-21T16:18:49;101.07;;;38.17;;
47860;SDS011;33620;52.340;5.984;2022-11-21T16:21:15;106.10;;;40.15;;
47860;SDS011;33620;52.340;5.984;2022-11-21T16:23:40;102.60;;;40.55;;
47860;SDS011;33620;52.340;5.984;2022-11-21T16:26:07;102.68;;;38.60;;
47860;SDS011;33620;52.340;5.984;2022-11-21T16:28:34;114.05;;;41.05;;
47860;SDS011;33620;52.340;5.984;2022-11-21T16:31:00;100.57;;;39.00;;
47860;SDS011;33620;52.340;5.984;2022-11-21T16:33:26;102.53;;;38.22;;